Cheatham Observed Data For Previous 48 Hours

Caption
Day and Hour Reservoir Elevation (behind dam)* Tailwater Elevation (below dam)* Average Hourly Discharge*
4/22/2018 1 AM CDT 383.84 369.74 57,200
4/22/2018 2 AM CDT 383.93 369.93 55,100
4/22/2018 3 AM CDT 383.95 369.55 54,600
4/22/2018 4 AM CDT 383.97 369.57 54,600
4/22/2018 5 AM CDT 383.99 369.49 54,600
4/22/2018 6 AM CDT 384.01 369.51 54,600
4/22/2018 7 AM CDT 384.03 369.49 54,400
4/22/2018 8 AM CDT 384.04 369.46 54,400
4/22/2018 9 AM CDT 384.05 369.44 54,400
4/22/2018 10 AM CDT 384.06 369.35 54,400
4/22/2018 11 AM CDT 384.06 369.25 54,400
4/22/2018 12 PM CDT 384.07 369.24 54,400
4/22/2018 1 PM CDT 384.12 369.25 55,100
4/22/2018 2 PM CDT 384.18 369.27 55,100
4/22/2018 3 PM CDT 384.21 369.28 55,100
4/22/2018 4 PM CDT 384.27 369.30 55,100
4/22/2018 5 PM CDT 384.33 369.31 55,100
4/22/2018 6 PM CDT 384.35 369.32 55,100
4/22/2018 7 PM CDT 384.41 369.33 55,100
4/22/2018 8 PM CDT 384.55 369.34 55,100
4/22/2018 9 PM CDT 384.65 369.35 55,100
4/22/2018 10 PM CDT 384.75 369.42 55,100
4/22/2018 11 PM CDT 384.85 369.50 55,100
4/23/2018 12 AM CDT 384.85 369.50 55,100
4/23/2018 1 AM CDT 385.39 369.73 54,450
4/23/2018 2 AM CDT 385.83 369.90 53,800
4/23/2018 3 AM CDT 386.23 370.07 53,800
4/23/2018 4 AM CDT 386.56 370.33 53,800
4/23/2018 5 AM CDT 386.65 370.75 63,200
4/23/2018 6 AM CDT 386.60 371.30 71,400
4/23/2018 7 AM CDT 386.56 372.39 79,000
4/23/2018 8 AM CDT 386.45 373.22 86,500
4/23/2018 9 AM CDT 386.29 373.90 89,900
4/23/2018 10 AM CDT 386.23 374.18 93,600
4/23/2018 11 AM CDT 385.98 374.81 99,700
4/23/2018 12 PM CDT 385.86 375.10 100,000
4/23/2018 1 PM CDT 385.95 375.22 100,000
4/23/2018 2 PM CDT 385.85 375.73 107,000
4/23/2018 3 PM CDT 385.75 375.95 107,000
4/23/2018 4 PM CDT 385.53 376.50 112,200
4/23/2018 5 PM CDT 385.29 377.04 114,800
4/23/2018 6 PM CDT 385.33 377.08 117,400
4/23/2018 7 PM CDT 385.40 377.35 115,000
4/23/2018 8 PM CDT 385.45 377.40 115,000
4/23/2018 9 PM CDT 385.56 377.54 115,000
4/23/2018 10 PM CDT 385.67 377.62 115,000
4/23/2018 11 PM CDT 385.78 377.72 115,000
4/24/2018 12 AM CDT 385.86 377.75 115,000
4/24/2018 1 AM CDT 385.65 378.25 117,000
4/24/2018 2 AM CDT 385.60 378.30 117,000
4/24/2018 3 AM CDT 385.55 378.33 117,000
4/24/2018 4 AM CDT 385.51 378.35 117,000
4/24/2018 5 AM CDT 385.50 378.35 117,000
4/24/2018 6 AM CDT 385.50 378.35 117,000
4/24/2018 7 AM CDT 385.37 378.34 117,000
4/24/2018 8 AM CDT 385.30 378.36 117,000
4/24/2018 9 AM CDT 385.23 378.35 117,000
4/24/2018 10 AM CDT 385.18 378.34 117,000
4/24/2018 11 AM CDT 385.12 378.33 117,000

Elevations are in feet above sea level. Discharges are in cubic feet per second and are reported at the end of the hour.